createdAt,value
2023-01-07T00:01:31.760Z,101435.72
2023-01-07T00:04:01.505Z,101442.66
2023-01-07T00:06:31.164Z,101439.31
2023-01-07T00:08:58.526Z,101435.91
2023-01-07T00:11:28.715Z,101427.28
2023-01-07T00:13:58.105Z,101430.88
2023-01-07T00:16:28.939Z,101430.09
2023-01-07T00:18:59.251Z,101427.59
2023-01-07T00:21:27.913Z,101425.94
2023-01-07T00:24:01.631Z,101423.44
2023-01-07T00:26:37.519Z,101417.44
2023-01-07T00:29:06.072Z,101427.19
2023-01-07T00:31:36.544Z,101420.28
2023-01-07T00:34:04.539Z,101423.06
2023-01-07T00:36:34.221Z,101422.31
2023-01-07T00:39:07.363Z,101414.59
2023-01-07T00:41:35.260Z,101415.59
2023-01-07T00:44:03.643Z,101413.97
2023-01-07T00:46:31.231Z,101403.59
2023-01-07T00:49:01.473Z,101402.78
2023-01-07T00:51:28.930Z,101407.28
2023-01-07T00:53:56.602Z,101401.22
2023-01-07T00:56:23.873Z,101399.56
2023-01-07T00:58:52.589Z,101406.63
2023-01-07T01:01:20.107Z,101404.09
2023-01-07T01:03:47.556Z,101395.47
2023-01-07T01:06:16.619Z,101399.06
2023-01-07T01:08:46.203Z,101388.63
2023-01-07T01:11:16.015Z,101386.94
2023-01-07T01:13:45.056Z,101384.38
2023-01-07T01:16:17.956Z,101392.31
2023-01-07T01:18:46.266Z,101380.97
2023-01-07T01:21:15.298Z,101380.16
2023-01-07T01:23:43.183Z,101370.59
2023-01-07T01:26:16.758Z,101375.00
2023-01-07T01:28:45.507Z,101373.28
2023-01-07T01:31:16.525Z,101372.44
2023-01-07T01:33:49.102Z,101372.50
2023-01-07T01:36:17.832Z,101378.66
2023-01-07T01:38:45.269Z,101382.22
2023-01-07T01:41:16.373Z,101373.50
2023-01-07T01:43:45.218Z,101372.72
2023-01-07T01:46:37.840Z,101375.38
2023-01-07T01:49:10.749Z,101376.28
2023-01-07T01:51:41.827Z,101367.53
2023-01-07T01:54:11.467Z,101364.06
2023-01-07T01:56:43.278Z,101367.59
2023-01-07T01:59:16.443Z,101370.28
2023-01-07T02:01:44.105Z,101364.19
2023-01-07T02:04:18.752Z,101357.22
2023-01-07T02:07:03.086Z,101366.06
2023-01-07T02:09:31.579Z,101363.50
2023-01-07T02:12:14.772Z,101361.78
2023-01-07T02:15:03.937Z,101370.59
2023-01-07T02:17:47.952Z,101372.44
2023-01-07T02:20:21.190Z,101364.56
2023-01-07T02:23:04.970Z,101355.84
2023-01-07T02:25:50.969Z,101352.34
2023-01-07T02:28:21.193Z,101360.31
2023-01-07T02:31:04.024Z,101354.19
2023-01-07T02:33:42.007Z,101358.63
2023-01-07T02:36:41.951Z,101354.28
2023-01-07T02:39:26.334Z,101358.69
2023-01-07T02:42:04.348Z,101351.72
2023-01-07T02:44:44.200Z,101355.25
2023-01-07T02:47:24.592Z,101342.13
2023-01-07T02:49:52.314Z,101350.91
2023-01-07T02:52:21.520Z,101344.78
2023-01-07T02:55:03.465Z,101347.44
2023-01-07T02:57:37.434Z,101353.56
2023-01-07T03:00:36.913Z,101335.16
2023-01-07T03:03:29.324Z,101335.16
2023-01-07T03:06:34.902Z,101333.44
2023-01-07T03:09:26.612Z,101337.84
2023-01-07T03:12:10.094Z,101333.50
2023-01-07T03:14:46.198Z,101336.19
2023-01-07T03:17:19.768Z,101328.31
2023-01-07T03:19:55.057Z,101330.06
2023-01-07T03:22:26.037Z,101326.63
2023-01-07T03:24:56.836Z,101331.88
2023-01-07T03:27:27.777Z,101323.13
2023-01-07T03:29:56.127Z,101324.91
2023-01-07T03:32:30.690Z,101325.78
2023-01-07T03:34:58.780Z,101328.41
2023-01-07T03:37:29.128Z,101314.38
2023-01-07T03:40:00.148Z,101319.66
2023-01-07T03:42:40.645Z,101316.13
2023-01-07T03:45:29.044Z,101316.13
2023-01-07T03:47:58.980Z,101310.88
2023-01-07T03:50:33.629Z,101297.72
2023-01-07T03:53:01.114Z,101298.63
2023-01-07T03:55:29.822Z,101295.09
2023-01-07T03:57:59.093Z,101284.63
2023-01-07T04:00:27.733Z,101293.38
2023-01-07T04:03:02.595Z,101286.41
2023-01-07T04:05:37.462Z,101283.78
2023-01-07T04:08:05.466Z,101289.94
2023-01-07T04:10:37.175Z,101293.41
2023-01-07T04:13:04.609Z,101290.78
2023-01-07T04:15:32.066Z,101290.78
2023-01-07T04:17:59.703Z,101289.03
2023-01-07T04:20:28.320Z,101288.13
2023-01-07T04:22:55.669Z,101287.25
2023-01-07T04:25:23.488Z,101294.28
2023-01-07T04:27:51.113Z,101282.88
2023-01-07T04:30:18.674Z,101289.03
2023-01-07T04:32:46.341Z,101276.75
2023-01-07T04:35:13.643Z,101270.63
2023-01-07T04:37:41.049Z,101260.09
2023-01-07T04:40:08.978Z,101260.06
2023-01-07T04:42:37.500Z,101260.94
2023-01-07T04:45:07.615Z,101255.69
2023-01-07T04:47:35.030Z,101261.81
2023-01-07T04:50:03.933Z,101255.69
2023-01-07T04:52:33.495Z,101257.47
2023-01-07T04:55:00.794Z,101246.94
2023-01-07T04:57:28.345Z,101252.19
2023-01-07T04:59:55.637Z,101257.47
2023-01-07T05:02:23.398Z,101253.06
2023-01-07T05:04:51.188Z,101251.31
2023-01-07T05:07:19.944Z,101248.69
2023-01-07T05:09:49.160Z,101246.06
2023-01-07T05:12:16.464Z,101243.41
2023-01-07T05:14:44.711Z,101246.97
2023-01-07T05:17:12.602Z,101246.06
2023-01-07T05:19:40.771Z,101242.53
2023-01-07T05:22:12.716Z,101239.03
2023-01-07T05:24:41.743Z,101240.78
2023-01-07T05:27:09.597Z,101235.53
2023-01-07T05:29:38.218Z,101233.78
2023-01-07T05:32:06.858Z,101231.19
2023-01-07T05:34:35.529Z,101240.78
2023-01-07T05:37:03.734Z,101247.84
2023-01-07T05:39:31.932Z,101240.78
2023-01-07T05:42:00.332Z,101239.91
2023-01-07T05:44:48.887Z,101239.91
2023-01-07T05:47:16.170Z,101237.28
2023-01-07T05:49:43.420Z,101241.69
2023-01-07T05:52:10.854Z,101233.81
2023-01-07T05:54:38.183Z,101239.06
2023-01-07T05:57:05.818Z,101234.66
2023-01-07T05:59:34.820Z,101247.81
2023-01-07T06:02:02.438Z,101239.03
2023-01-07T06:04:29.865Z,101238.16
2023-01-07T06:06:57.138Z,101233.78
2023-01-07T06:09:24.571Z,101236.41
2023-01-07T06:11:51.836Z,101232.03
2023-01-07T06:14:19.271Z,101229.41
2023-01-07T06:16:46.675Z,101224.13
2023-01-07T06:19:14.127Z,101227.66
2023-01-07T06:21:42.602Z,101225.00
2023-01-07T06:24:11.477Z,101220.66
2023-01-07T06:26:38.832Z,101220.66
2023-01-07T06:29:06.046Z,101211.00
2023-01-07T06:31:33.725Z,101211.88
2023-01-07T06:34:01.121Z,101211.00
2023-01-07T06:36:28.534Z,101216.25
2023-01-07T06:38:55.757Z,101212.75
2023-01-07T06:41:23.494Z,101206.63
2023-01-07T06:43:50.750Z,101208.34
2023-01-07T06:46:18.267Z,101212.72
2023-01-07T06:48:45.772Z,101207.47
2023-01-07T06:51:13.105Z,101208.34
2023-01-07T06:53:40.391Z,101207.47
2023-01-07T06:56:07.706Z,101210.97
2023-01-07T06:58:35.012Z,101197.81
2023-01-07T07:01:06.878Z,101205.69
2023-01-07T07:03:34.310Z,101204.81
2023-01-07T07:06:01.737Z,101198.63
2023-01-07T07:08:29.133Z,101202.13
2023-01-07T07:10:56.568Z,101196.88
2023-01-07T07:13:23.923Z,101195.09
2023-01-07T07:15:51.390Z,101192.47
2023-01-07T07:18:18.941Z,101193.31
2023-01-07T07:20:46.931Z,101188.06
2023-01-07T07:23:14.589Z,101194.16
2023-01-07T07:25:42.741Z,101190.63
2023-01-07T07:28:10.534Z,101195.06
2023-01-07T07:30:45.616Z,101191.53
2023-01-07T07:33:15.279Z,101187.09
2023-01-07T07:35:42.808Z,101185.31
2023-01-07T07:38:10.158Z,101188.88
2023-01-07T07:40:37.411Z,101180.97
2023-01-07T07:43:11.143Z,101189.75
2023-01-07T07:45:41.436Z,101185.31
2023-01-07T07:48:10.134Z,101184.47
2023-01-07T07:50:37.718Z,101180.09
2023-01-07T07:53:05.114Z,101187.97
2023-01-07T07:55:32.379Z,101189.75
2023-01-07T07:57:59.768Z,101170.47
2023-01-07T08:00:27.164Z,101164.34
2023-01-07T08:02:59.266Z,101162.59
2023-01-07T08:05:27.584Z,101162.63
2023-01-07T08:07:54.902Z,101167.03
2023-01-07T08:10:25.351Z,101157.38
2023-01-07T08:12:52.943Z,101163.50
2023-01-07T08:15:20.532Z,101164.38
2023-01-07T08:17:47.856Z,101163.50
2023-01-07T08:20:15.485Z,101151.25
2023-01-07T08:22:42.817Z,101150.38
2023-01-07T08:25:10.457Z,101153.84
2023-01-07T08:27:37.779Z,101150.38
2023-01-07T08:30:05.447Z,101158.25
2023-01-07T08:32:32.714Z,101156.50
2023-01-07T08:35:00.423Z,101150.38
2023-01-07T08:37:30.338Z,101149.44
2023-01-07T08:39:57.783Z,101146.84
2023-01-07T08:42:25.083Z,101137.22
2023-01-07T08:44:52.478Z,101134.59
2023-01-07T08:47:19.767Z,101132.84
2023-01-07T08:49:47.299Z,101138.16
2023-01-07T08:52:14.616Z,101132.00
2023-01-07T08:54:41.982Z,101127.63
2023-01-07T08:57:09.273Z,101131.16
2023-01-07T08:59:38.994Z,101136.47
2023-01-07T09:02:17.877Z,101128.63
2023-01-07T09:04:45.614Z,101126.03
2023-01-07T09:07:12.981Z,101126.94
2023-01-07T09:09:41.256Z,101127.88
2023-01-07T09:12:11.496Z,101115.63
2023-01-07T09:14:38.852Z,101126.19
2023-01-07T09:17:06.116Z,101125.31
2023-01-07T09:19:33.409Z,101121.81
2023-01-07T09:22:00.771Z,101125.31
2023-01-07T09:24:28.076Z,101121.81
2023-01-07T09:26:55.727Z,101120.06
2023-01-07T09:29:23.028Z,101121.78
2023-01-07T09:31:50.475Z,101130.59
2023-01-07T09:34:17.876Z,101124.41
2023-01-07T09:36:45.287Z,101127.03
2023-01-07T09:39:13.075Z,101113.91
2023-01-07T09:42:02.984Z,101114.81
2023-01-07T09:44:30.329Z,101110.41
2023-01-07T09:46:58.033Z,101114.75
2023-01-07T09:49:29.918Z,101110.34
2023-01-07T09:52:26.487Z,101109.44
2023-01-07T09:55:02.189Z,101110.34
2023-01-07T09:57:29.703Z,101113.81
2023-01-07T09:59:57.260Z,101106.81
2023-01-07T10:03:10.977Z,101105.94
2023-01-07T10:06:01.655Z,101112.09
2023-01-07T10:08:44.916Z,101105.09
2023-01-07T10:11:35.829Z,101100.72
2023-01-07T10:14:27.354Z,101099.84
2023-01-07T10:16:54.538Z,101097.25
2023-01-07T10:19:29.090Z,101087.63
2023-01-07T10:22:03.119Z,101086.75
2023-01-07T10:24:56.046Z,101086.75
2023-01-07T10:27:32.492Z,101074.47
2023-01-07T10:30:03.565Z,101082.38
2023-01-07T10:32:33.692Z,101075.34
2023-01-07T10:35:01.924Z,101077.06
2023-01-07T10:37:38.419Z,101077.06
2023-01-07T10:40:15.202Z,101070.97
2023-01-07T10:43:05.324Z,101067.47
2023-01-07T10:45:55.991Z,101057.03
2023-01-07T10:48:46.777Z,101057.03
2023-01-07T10:51:51.700Z,101046.56
2023-01-07T10:54:47.017Z,101032.56
2023-01-07T10:57:22.769Z,101023.81
2023-01-07T11:00:06.758Z,101032.56
2023-01-07T11:02:34.235Z,101029.06
2023-01-07T11:05:01.803Z,101017.69
2023-01-07T11:07:36.936Z,101011.53
2023-01-07T11:10:05.886Z,101007.16
2023-01-07T11:12:50.574Z,101005.44
2023-01-07T11:15:26.779Z,101006.31
2023-01-07T11:18:12.543Z,100983.53
2023-01-07T11:20:51.846Z,100986.22
2023-01-07T11:23:44.268Z,100978.34
2023-01-07T11:26:14.770Z,100974.84
2023-01-07T11:28:53.728Z,100968.72
2023-01-07T11:31:24.022Z,100966.13
2023-01-07T11:34:03.141Z,100974.00
2023-01-07T11:36:43.409Z,100965.28
2023-01-07T11:39:18.741Z,100946.84
2023-01-07T11:41:55.373Z,100942.50
2023-01-07T11:44:48.505Z,100947.75
2023-01-07T11:47:19.863Z,100939.00
2023-01-07T11:49:48.992Z,100938.13
2023-01-07T11:52:25.803Z,100926.75
2023-01-07T11:54:53.816Z,100932.03
2023-01-07T11:57:24.377Z,100929.44
2023-01-07T12:00:17.923Z,100922.44
2023-01-07T12:02:45.617Z,100923.31
2023-01-07T12:05:24.769Z,100915.41
2023-01-07T12:07:52.711Z,100909.31
2023-01-07T12:10:24.906Z,100906.66
2023-01-07T12:12:52.584Z,100899.66
2023-01-07T12:15:24.631Z,100898.75
2023-01-07T12:18:03.569Z,100901.38
2023-01-07T12:20:51.671Z,100894.34
2023-01-07T12:23:32.185Z,100889.94
2023-01-07T12:26:12.687Z,100885.56
2023-01-07T12:28:55.246Z,100882.94
2023-01-07T12:31:47.723Z,100874.16
2023-01-07T12:34:26.529Z,100868.91
2023-01-07T12:37:10.297Z,100852.22
2023-01-07T12:39:44.414Z,100854.88
2023-01-07T12:42:24.782Z,100845.22
2023-01-07T12:45:04.335Z,100828.56
2023-01-07T12:47:40.023Z,100826.81
2023-01-07T12:50:26.212Z,100818.91
2023-01-07T12:53:01.696Z,100809.28
2023-01-07T12:55:34.351Z,100811.03
2023-01-07T12:58:27.219Z,100797.03
2023-01-07T13:01:02.518Z,100780.34
2023-01-07T13:03:32.913Z,100775.09
2023-01-07T13:06:07.443Z,100777.72
2023-01-07T13:08:40.681Z,100760.16
2023-01-07T13:12:03.428Z,100761.03
2023-01-07T13:14:42.336Z,100754.03
2023-01-07T13:17:26.889Z,100756.66
2023-01-07T13:19:55.173Z,100754.03
2023-01-07T13:22:56.414Z,100751.38
2023-01-07T13:25:42.607Z,100745.22
2023-01-07T13:28:24.236Z,100732.94
2023-01-07T13:31:25.681Z,100736.44
2023-01-07T13:34:11.441Z,100732.06
2023-01-07T13:36:50.817Z,100725.03
2023-01-07T13:39:54.980Z,100725.03
2023-01-07T13:42:25.395Z,100714.47
2023-01-07T13:44:55.769Z,100714.47
2023-01-07T13:47:27.449Z,100708.31
2023-01-07T13:50:00.563Z,100716.22
2023-01-07T13:52:31.269Z,100701.28
2023-01-07T13:55:00.145Z,100698.66
2023-01-07T13:57:27.274Z,100697.75
2023-01-07T13:59:56.371Z,100687.22
2023-01-07T14:02:28.383Z,100682.81
2023-01-07T14:05:06.400Z,100674.94
2023-01-07T14:07:46.423Z,100678.44
2023-01-07T14:10:35.183Z,100670.53
2023-01-07T14:13:23.627Z,100669.63
2023-01-07T14:16:29.361Z,100670.50
2023-01-07T14:19:18.104Z,100670.47
2023-01-07T14:21:58.230Z,100657.31
2023-01-07T14:24:44.163Z,100654.69
2023-01-07T14:27:32.888Z,100649.38
2023-01-07T14:30:23.142Z,100645.00
2023-01-07T14:33:21.641Z,100642.34
2023-01-07T14:36:08.972Z,100631.81
2023-01-07T14:38:36.221Z,100632.66
2023-01-07T14:41:03.496Z,100617.78
2023-01-07T14:43:46.024Z,100620.38
2023-01-07T14:46:22.580Z,100626.50
2023-01-07T14:49:02.415Z,100622.97
2023-01-07T14:51:45.013Z,100602.81
2023-01-07T14:54:29.249Z,100618.56
2023-01-07T14:57:14.684Z,100611.56
2023-01-07T15:00:29.832Z,100611.53
2023-01-07T15:03:22.861Z,100610.63
2023-01-07T15:06:06.829Z,100614.13
2023-01-07T15:09:05.366Z,100609.75
2023-01-07T15:11:52.827Z,100606.22
2023-01-07T15:14:45.782Z,100595.69
2023-01-07T15:17:15.254Z,100594.81
2023-01-07T15:19:44.458Z,100594.78
2023-01-07T15:22:36.783Z,100586.88
2023-01-07T15:25:56.610Z,100593.84
2023-01-07T15:28:34.791Z,100585.94
2023-01-07T15:31:21.533Z,100587.69
2023-01-07T15:33:55.520Z,100580.66
2023-01-07T15:36:23.590Z,100584.09
2023-01-07T15:38:54.823Z,100575.34
2023-01-07T15:41:35.927Z,100570.97
2023-01-07T15:44:42.428Z,100552.53
2023-01-07T15:47:37.979Z,100563.06
2023-01-07T15:50:23.363Z,100556.00
2023-01-07T15:52:52.301Z,100554.28
2023-01-07T15:55:44.960Z,100552.47
2023-01-07T15:58:17.085Z,100548.13
2023-01-07T16:00:44.676Z,100550.72
2023-01-07T16:03:17.226Z,100535.84
2023-01-07T16:05:45.019Z,100529.69
2023-01-07T16:08:22.139Z,100528.78
2023-01-07T16:11:20.617Z,100533.16
2023-01-07T16:14:03.381Z,100532.28
2023-01-07T16:16:32.477Z,100526.13
2023-01-07T16:19:02.021Z,100529.56
2023-01-07T16:21:37.073Z,100525.22
2023-01-07T16:24:05.176Z,100520.81
2023-01-07T16:26:38.453Z,100522.56
2023-01-07T16:29:13.621Z,100527.81
2023-01-07T16:31:41.004Z,100523.44
2023-01-07T16:34:23.716Z,100520.78
2023-01-07T16:36:59.782Z,100519.03
2023-01-07T16:39:41.910Z,100522.53
2023-01-07T16:42:20.560Z,100515.56
2023-01-07T16:44:49.612Z,100513.81
2023-01-07T16:47:22.683Z,100514.72
2023-01-07T16:49:52.564Z,100511.19
2023-01-07T16:52:29.928Z,100501.66
2023-01-07T16:54:57.504Z,100501.63
2023-01-07T16:57:30.081Z,100489.38
2023-01-07T17:00:01.654Z,100485.91
2023-01-07T17:02:33.926Z,100491.16
2023-01-07T17:05:36.629Z,100485.94
2023-01-07T17:08:15.690Z,100478.09
2023-01-07T17:10:47.691Z,100474.56
2023-01-07T17:13:14.930Z,100478.97
2023-01-07T17:16:08.637Z,100480.75
2023-01-07T17:23:38.106Z,100468.47
2023-01-07T17:31:02.698Z,100459.72
2023-01-07T17:34:32.498Z,100452.72
2023-01-07T17:37:24.591Z,100452.72
2023-01-07T17:39:51.879Z,100442.16
2023-01-07T17:42:44.354Z,100444.81
2023-01-07T17:45:17.573Z,100437.78
2023-01-07T17:47:45.505Z,100436.88
2023-01-07T17:50:14.782Z,100435.06
2023-01-07T17:52:45.208Z,100436.81
2023-01-07T17:55:24.121Z,100434.16
2023-01-07T17:57:55.647Z,100424.53
2023-01-07T18:01:58.172Z,100420.13
2023-01-07T18:06:00.178Z,100425.38
2023-01-07T18:13:40.078Z,100429.72
2023-01-07T18:20:19.140Z,100407.88
2023-01-07T18:26:19.506Z,100408.75
2023-01-07T18:28:47.693Z,100416.63
2023-01-07T18:31:15.758Z,100405.25
2023-01-07T18:33:43.166Z,100407.00
2023-01-07T18:36:11.710Z,100398.28
2023-01-07T18:38:39.360Z,100399.13
2023-01-07T18:41:06.837Z,100393.00
2023-01-07T18:43:35.058Z,100393.88
2023-01-07T18:46:08.060Z,100385.97
2023-01-07T18:48:38.243Z,100386.88
2023-01-07T18:51:10.760Z,100386.88
2023-01-07T18:53:40.177Z,100385.97
2023-01-07T18:56:12.713Z,100377.22
2023-01-07T18:58:44.343Z,100369.34
2023-01-07T19:01:12.457Z,100375.47
2023-01-07T19:03:48.060Z,100364.94
2023-01-07T19:06:18.228Z,100362.28
2023-01-07T19:08:45.767Z,100361.44
2023-01-07T19:11:17.127Z,100345.69
2023-01-07T19:13:44.520Z,100336.03
2023-01-07T19:16:21.928Z,100336.94
2023-01-07T19:18:53.237Z,100339.56
2023-01-07T19:21:29.464Z,100336.06
2023-01-07T19:23:59.400Z,100343.06
2023-01-07T19:29:15.427Z,100335.19
2023-01-07T19:31:45.690Z,100337.81
2023-01-07T19:34:14.502Z,100328.22
2023-01-07T19:36:46.986Z,100329.94
2023-01-07T19:39:20.847Z,100331.72
2023-01-07T19:41:49.035Z,100336.06
2023-01-07T19:44:21.002Z,100318.59
2023-01-07T19:46:55.154Z,100328.22
2023-01-07T19:49:37.316Z,100326.47
2023-01-07T19:52:05.887Z,100315.97
2023-01-07T19:54:35.179Z,100323.84
2023-01-07T19:57:02.538Z,100309.84
2023-01-07T19:59:33.374Z,100315.97
2023-01-07T20:02:03.120Z,100307.25
2023-01-07T20:04:30.984Z,100309.88
2023-01-07T20:06:58.909Z,100302.88
2023-01-07T20:09:28.562Z,100299.34
2023-01-07T20:11:57.239Z,100295.00
2023-01-07T20:14:24.593Z,100288.88
2023-01-07T20:16:56.197Z,100298.50
2023-01-07T20:19:24.408Z,100292.38
2023-01-07T20:21:52.529Z,100298.50
2023-01-07T20:24:20.214Z,100289.75
2023-01-07T20:26:48.700Z,100297.63
2023-01-07T20:29:18.557Z,100295.91
2023-01-07T20:31:46.220Z,100306.41
2023-01-07T20:34:13.655Z,100304.66
2023-01-07T20:36:42.814Z,100301.16
2023-01-07T20:39:13.714Z,100305.56
2023-01-07T20:41:41.633Z,100314.31
2023-01-07T20:44:11.680Z,100302.97
2023-01-07T20:46:42.491Z,100294.22
2023-01-07T20:49:10.665Z,100288.91
2023-01-07T20:51:38.877Z,100293.28
2023-01-07T20:54:06.816Z,100300.31
2023-01-07T20:56:34.932Z,100295.94
2023-01-07T20:59:03.314Z,100289.81
2023-01-07T21:01:31.774Z,100282.78
2023-01-07T21:04:02.442Z,100276.69
2023-01-07T21:06:32.140Z,100279.31
2023-01-07T21:09:25.948Z,100274.06
2023-01-07T21:11:58.410Z,100274.94
2023-01-07T21:14:32.681Z,100284.59
2023-01-07T21:17:05.519Z,100277.59
2023-01-07T21:19:38.280Z,100281.06
2023-01-07T21:22:07.379Z,100282.84
2023-01-07T21:24:42.003Z,100281.06
2023-01-07T21:27:09.979Z,100277.59
2023-01-07T21:29:38.916Z,100278.47
2023-01-07T21:32:08.356Z,100272.31
2023-01-07T21:34:46.989Z,100262.72
2023-01-07T21:37:20.604Z,100266.22
2023-01-07T21:39:54.910Z,100260.09
2023-01-07T21:42:22.651Z,100253.94
2023-01-07T21:44:50.974Z,100253.94
2023-01-07T21:47:37.320Z,100254.81
2023-01-07T21:50:15.233Z,100245.22
2023-01-07T21:52:47.322Z,100247.84
2023-01-07T21:55:14.862Z,100247.84
2023-01-07T21:57:47.104Z,100235.59
2023-01-07T22:00:20.062Z,100229.47
2023-01-07T22:02:50.197Z,100229.44
2023-01-07T22:05:17.983Z,100237.34
2023-01-07T22:07:49.610Z,100225.97
2023-01-07T22:10:17.869Z,100222.44
2023-01-07T22:12:55.074Z,100204.97
2023-01-07T22:15:37.401Z,100222.47
2023-01-07T22:18:05.853Z,100214.59
2023-01-07T22:20:33.256Z,100204.94
2023-01-07T22:23:13.486Z,100203.19
2023-01-07T22:25:43.731Z,100223.34
2023-01-07T22:28:15.620Z,100221.59
2023-01-07T22:30:47.677Z,100223.34
2023-01-07T22:33:22.954Z,100207.56
2023-01-07T22:36:03.534Z,100210.22
2023-01-07T22:38:32.785Z,100218.09
2023-01-07T22:41:12.414Z,100209.34
2023-01-07T22:43:47.205Z,100218.06
2023-01-07T22:49:44.309Z,100221.59
2023-01-07T22:52:20.845Z,100222.44
2023-01-07T22:55:32.614Z,100232.09
2023-01-07T22:58:10.069Z,100219.81
2023-01-07T23:00:52.034Z,100218.06
2023-01-07T23:03:22.295Z,100233.81
2023-01-07T23:06:02.966Z,100223.31
2023-01-07T23:08:31.972Z,100212.81
2023-01-07T23:11:01.971Z,100212.78
2023-01-07T23:13:33.056Z,100209.28
2023-01-07T23:16:02.972Z,100218.88
2023-01-07T23:18:33.779Z,100214.53
2023-01-07T23:21:19.752Z,100204.91
2023-01-07T23:23:57.179Z,100203.13
2023-01-07T23:26:57.422Z,100205.75
2023-01-07T23:32:38.808Z,100197.00
2023-01-07T23:35:22.116Z,100202.25
2023-01-07T23:38:03.956Z,100197.88
2023-01-07T23:40:35.808Z,100194.38
2023-01-07T23:43:07.392Z,100189.13
2023-01-07T23:46:17.081Z,100191.75
2023-01-07T23:49:13.230Z,100187.34
2023-01-07T23:51:44.192Z,100190.00
2023-01-07T23:54:34.300Z,100189.97
2023-01-07T23:57:02.028Z,100194.34
2023-01-07T23:59:30.209Z,100189.13
